Hartford, VT

10:17 AM EDT on August 28, 2015 (GMT -0400)
Montshire Museum | | Change Station
CLOSE
Current Station
Personal Weather Station
Location: Norwich, VT
Elevation: 436 ft
Nearby Weather Stations

Elev 436 ft 43.70 °N, 72.31 °W | Updated 4 seconds ago

Partly Cloudy
Partly Cloudy
66.2 °F
Feels Like 66.2 °F
N
3.7
Wind Variable Wind from ENE
Gusts 4.0 mph

Today
High -- | Low -- °F
--% Chance of Precip.
Yesterday
High -- | Low -- °F
Precip. -- in
6:08 AM 7:32 PM
Waxing Gibbous, 98% visible
Pressure 30.18 in
Visibility 10.0 miles
Clouds Clear
Dew Point 61 °F
Humidity 85%
Rainfall 0.00 in
Snow Depth Not available.
UV 5 out of 12
Pollen 8.20 out of 12
Air Quality Not available.
Flu Activity Not available.
METAR KLEB 281353Z 00000KT 10SM CLR 17/13 A3019 RMK AO2 SLP218 T01670128
Pressure 30.18 in
Visibility 10.0 miles
Clouds Clear
Dew Point 61 °F
Humidity 85%
Rainfall 0.00 in
Snow Depth Not available.
UV 5 out of 12
Pollen 8.20 out of 12
Air Quality Not available.
Flu Activity Not available.
METAR KLEB 281353Z 00000KT 10SM CLR 17/13 A3019 RMK AO2 SLP218 T01670128

10-Day Weather Forecast

×

Almanac

Astronomy

Aug. 28, 2015 Rise Set
Actual Time
Civil Twilight
Nautical Twilight
Astronomical Twilight
Moon
Length of Visible Light
Length of Day
Tomorrow will be .
, % of the Moon is Illuminated

Today's Extremes

State Highs State Lows

Community

WunderPhotos

Upload Photos

1,850,379 photos uploaded!

WunderBlogs® & News

Nearby

Air Quality

  Air Quality AQ Index Pollutant
Not available.

Snow Depth

Station Depth Elevation

Earthquake Activity

City Distance Mag. Time & Date
Minimum magnitude displayed is 2.5.

Coastal Water Temperatures

Place Temperature

Stations

Nearby Weather Stations

Station Location Temp. Windchill Dew Point Humidity Wind Precip. Elev Updated Type